createdAt,value
2019-05-15T00:01:58.425Z,9.26
2019-05-15T00:04:29.567Z,9.31
2019-05-15T00:07:00.667Z,9.34
2019-05-15T00:09:31.715Z,9.33
2019-05-15T00:12:02.876Z,9.30
2019-05-15T00:14:33.874Z,9.29
2019-05-15T00:17:04.879Z,9.33
2019-05-15T00:19:36.004Z,9.31
2019-05-15T00:22:08.630Z,9.27
2019-05-15T00:24:39.867Z,9.30
2019-05-15T00:27:10.961Z,9.27
2019-05-15T00:29:42.252Z,9.28
2019-05-15T00:32:13.448Z,9.30
2019-05-15T00:34:44.537Z,9.30
2019-05-15T00:37:18.072Z,9.31
2019-05-15T00:39:49.044Z,9.26
2019-05-15T00:42:20.121Z,9.28
2019-05-15T00:44:51.060Z,9.28
2019-05-15T00:47:22.122Z,9.29
2019-05-15T00:49:53.594Z,9.29
2019-05-15T00:52:24.577Z,9.31
2019-05-15T00:54:55.660Z,9.33
2019-05-15T00:57:28.355Z,9.27
2019-05-15T00:59:59.338Z,9.31
2019-05-15T01:02:30.421Z,9.28
2019-05-15T01:05:01.361Z,9.27
2019-05-15T01:07:32.465Z,9.28
2019-05-15T01:10:04.131Z,9.28
2019-05-15T01:12:35.349Z,9.27
2019-05-15T01:15:09.201Z,9.26
2019-05-15T01:17:40.723Z,9.27
2019-05-15T01:20:12.347Z,9.24
2019-05-15T01:22:43.393Z,9.27
2019-05-15T01:25:14.477Z,9.27
2019-05-15T01:27:45.729Z,9.26
2019-05-15T01:30:17.964Z,9.27
2019-05-15T01:32:49.439Z,9.24
2019-05-15T01:35:20.652Z,9.23
2019-05-15T01:37:51.923Z,9.24
2019-05-15T01:40:23.159Z,9.26
2019-05-15T01:42:54.015Z,9.23
2019-05-15T01:45:24.975Z,9.28
2019-05-15T01:47:58.495Z,9.28
2019-05-15T01:50:29.322Z,9.30
2019-05-15T01:53:00.335Z,9.31
2019-05-15T01:55:31.337Z,9.32
2019-05-15T01:58:02.489Z,9.36
2019-05-15T02:00:33.629Z,9.36
2019-05-15T02:03:04.764Z,9.38
2019-05-15T02:05:36.151Z,9.39
2019-05-15T02:08:08.228Z,9.39
2019-05-15T02:10:39.632Z,9.36
2019-05-15T02:13:10.739Z,9.39
2019-05-15T02:15:41.781Z,9.39
2019-05-15T02:18:12.823Z,9.38
2019-05-15T02:20:43.867Z,9.37
2019-05-15T02:23:14.937Z,9.37
2019-05-15T02:25:48.023Z,9.41
2019-05-15T02:28:18.852Z,9.41
2019-05-15T02:30:50.636Z,9.46
2019-05-15T02:33:21.743Z,9.45
2019-05-15T02:35:53.033Z,9.44
2019-05-15T02:38:29.224Z,9.44
2019-05-15T02:40:59.379Z,9.48
2019-05-15T02:43:30.733Z,9.46
2019-05-15T02:46:01.982Z,9.48
2019-05-15T02:48:32.965Z,9.49
2019-05-15T02:51:04.165Z,9.45
2019-05-15T02:53:35.457Z,9.47
2019-05-15T02:56:09.305Z,9.47
2019-05-15T02:58:40.035Z,9.47
2019-05-15T03:01:11.341Z,9.47
2019-05-15T03:03:42.535Z,9.50
2019-05-15T03:06:13.562Z,9.48
2019-05-15T03:08:44.836Z,9.49
2019-05-15T03:11:18.763Z,9.46
2019-05-15T03:13:50.495Z,9.45
2019-05-15T03:16:21.519Z,9.48
2019-05-15T03:18:55.749Z,9.51
2019-05-15T03:21:29.297Z,9.51
2019-05-15T03:23:59.643Z,9.54
2019-05-15T03:26:30.879Z,9.54
2019-05-15T03:29:02.009Z,9.56
2019-05-15T03:31:50.633Z,9.55
2019-05-15T03:34:18.562Z,9.59
2019-05-15T03:36:44.399Z,9.62
2019-05-15T03:39:11.646Z,9.64
2019-05-15T03:41:42.617Z,9.65
2019-05-15T03:44:13.965Z,9.70
2019-05-15T03:46:45.025Z,9.76
2019-05-15T03:49:16.107Z,9.80
2019-05-15T03:51:49.910Z,9.83
2019-05-15T03:54:19.805Z,9.83
2019-05-15T03:56:50.700Z,9.87
2019-05-15T03:59:21.853Z,9.89
2019-05-15T04:01:53.009Z,9.86
2019-05-15T04:04:24.314Z,9.81
2019-05-15T04:06:55.525Z,9.77
2019-05-15T04:09:29.472Z,9.81
2019-05-15T04:12:00.131Z,9.86
2019-05-15T04:14:32.856Z,9.89
2019-05-15T04:17:03.948Z,9.89
2019-05-15T04:19:38.884Z,9.91
2019-05-15T04:22:09.303Z,9.92
2019-05-15T04:24:41.384Z,9.92
2019-05-15T04:27:13.356Z,9.98
2019-05-15T04:29:44.383Z,10.03
2019-05-15T04:32:15.466Z,10.08
2019-05-15T04:34:48.951Z,10.11
2019-05-15T04:37:19.209Z,10.11
2019-05-15T04:39:50.080Z,10.08
2019-05-15T04:42:21.019Z,10.18
2019-05-15T04:44:52.010Z,10.26
2019-05-15T04:47:23.237Z,10.33
2019-05-15T04:49:54.175Z,10.37
2019-05-15T04:52:25.213Z,10.40
2019-05-15T04:54:56.024Z,10.44
2019-05-15T04:57:33.005Z,10.45
2019-05-15T05:00:00.285Z,10.42
2019-05-15T05:02:32.386Z,10.45
2019-05-15T05:05:04.714Z,10.44
2019-05-15T05:07:38.966Z,10.43
2019-05-15T05:10:10.317Z,10.42
2019-05-15T05:12:42.548Z,10.39
2019-05-15T05:15:13.989Z,10.36
2019-05-15T05:17:45.345Z,10.32
2019-05-15T05:20:17.917Z,10.35
2019-05-15T05:22:49.181Z,10.35
2019-05-15T05:25:20.170Z,10.36
2019-05-15T05:27:51.620Z,10.40
2019-05-15T05:30:22.819Z,10.45
2019-05-15T05:32:53.942Z,10.47
2019-05-15T05:35:25.009Z,10.49
2019-05-15T05:37:58.223Z,10.55
2019-05-15T05:40:29.370Z,10.60
2019-05-15T05:43:00.791Z,10.59
2019-05-15T05:45:31.915Z,10.60
2019-05-15T05:48:03.090Z,10.64
2019-05-15T05:50:44.815Z,10.67
2019-05-15T05:53:15.945Z,10.63
2019-05-15T05:55:49.174Z,10.60
2019-05-15T05:58:20.073Z,10.60
2019-05-15T06:00:52.124Z,10.63
2019-05-15T06:03:23.410Z,10.69
2019-05-15T06:05:54.437Z,10.77
2019-05-15T06:08:28.100Z,10.82
2019-05-15T06:10:58.710Z,10.82
2019-05-15T06:13:29.945Z,10.88
2019-05-15T06:16:01.067Z,10.92
2019-05-15T06:18:32.071Z,10.98
2019-05-15T06:21:03.147Z,11.03
2019-05-15T06:23:35.883Z,11.07
2019-05-15T06:26:09.604Z,11.12
2019-05-15T06:28:39.860Z,11.14
2019-05-15T06:31:10.900Z,11.15
2019-05-15T06:33:41.962Z,11.17
2019-05-15T06:36:13.210Z,11.23
2019-05-15T06:38:44.241Z,11.30
2019-05-15T06:41:17.932Z,11.43
2019-05-15T06:43:48.502Z,11.53
2019-05-15T06:46:19.786Z,11.65
2019-05-15T06:48:50.773Z,11.71
2019-05-15T06:51:21.771Z,11.73
2019-05-15T06:53:53.037Z,11.66
2019-05-15T06:56:24.205Z,11.63
2019-05-15T06:58:55.183Z,11.72
2019-05-15T07:01:26.357Z,11.76
2019-05-15T07:03:59.058Z,11.89
2019-05-15T07:06:30.537Z,11.99
2019-05-15T07:09:01.530Z,12.11
2019-05-15T07:11:32.903Z,12.20
2019-05-15T07:14:04.440Z,12.28
2019-05-15T07:16:35.361Z,12.27
2019-05-15T07:19:08.291Z,12.36
2019-05-15T07:21:39.313Z,12.37
2019-05-15T07:24:10.262Z,12.32
2019-05-15T07:26:41.374Z,12.20
2019-05-15T07:29:12.548Z,12.17
2019-05-15T07:31:43.891Z,12.21
2019-05-15T07:34:15.026Z,12.29
2019-05-15T07:36:49.221Z,12.42
2019-05-15T07:39:19.210Z,12.49
2019-05-15T07:41:50.132Z,12.55
2019-05-15T07:44:21.316Z,12.53
2019-05-15T07:46:52.224Z,12.43
2019-05-15T07:49:23.884Z,12.33
2019-05-15T07:51:54.972Z,12.30
2019-05-15T07:54:26.196Z,12.31
2019-05-15T07:56:58.214Z,12.31
2019-05-15T07:59:34.324Z,12.32
2019-05-15T08:02:05.440Z,12.28
2019-05-15T08:04:38.064Z,12.30
2019-05-15T08:07:09.497Z,12.37
2019-05-15T08:09:40.478Z,12.46
2019-05-15T08:12:12.141Z,12.46
2019-05-15T08:14:43.362Z,12.58
2019-05-15T08:17:18.224Z,12.63
2019-05-15T08:19:48.738Z,12.79
2019-05-15T08:22:19.844Z,12.85
2019-05-15T08:24:51.011Z,12.92
2019-05-15T08:27:23.742Z,13.00
2019-05-15T08:29:55.078Z,13.05
2019-05-15T08:32:28.004Z,13.05
2019-05-15T08:34:59.254Z,13.00
2019-05-15T08:37:31.001Z,12.89
2019-05-15T08:40:01.950Z,12.79
2019-05-15T08:42:34.442Z,12.67
2019-05-15T08:45:09.223Z,12.60
2019-05-15T08:47:40.412Z,12.54
2019-05-15T08:50:12.272Z,12.51
2019-05-15T08:52:44.422Z,12.49
2019-05-15T08:55:15.887Z,12.51
2019-05-15T08:57:54.050Z,12.54
2019-05-15T09:00:19.938Z,12.51
2019-05-15T09:02:51.159Z,12.53
2019-05-15T09:05:22.684Z,12.58
2019-05-15T09:07:53.940Z,12.62
2019-05-15T09:10:25.122Z,12.59
2019-05-15T09:12:58.611Z,12.62
2019-05-15T09:15:29.513Z,12.63
2019-05-15T09:18:14.725Z,12.50
2019-05-15T09:20:33.439Z,12.49
2019-05-15T09:23:04.661Z,12.53
2019-05-15T09:25:35.831Z,12.54
2019-05-15T09:28:08.688Z,12.59
2019-05-15T09:30:39.650Z,12.65
2019-05-15T09:33:11.204Z,12.67
2019-05-15T09:35:42.738Z,12.74
2019-05-15T09:38:13.958Z,12.87
2019-05-15T09:40:46.585Z,12.93
2019-05-15T09:43:18.316Z,13.04
2019-05-15T09:45:50.146Z,13.09
2019-05-15T09:48:21.214Z,13.07
2019-05-15T09:50:52.191Z,13.04
2019-05-15T09:53:24.972Z,13.08
2019-05-15T09:55:55.999Z,13.10
2019-05-15T09:58:30.047Z,13.18
2019-05-15T10:01:00.832Z,13.19
2019-05-15T10:03:32.272Z,13.18
2019-05-15T10:06:03.482Z,13.20
2019-05-15T10:08:34.596Z,13.05
2019-05-15T10:11:08.866Z,13.06
2019-05-15T10:13:38.911Z,13.06
2019-05-15T10:16:10.093Z,13.14
2019-05-15T10:18:41.359Z,13.11
2019-05-15T10:21:12.668Z,13.12
2019-05-15T10:23:43.901Z,13.22
2019-05-15T10:26:15.059Z,13.30
2019-05-15T10:28:49.025Z,13.32
2019-05-15T10:31:19.710Z,13.47
2019-05-15T10:33:52.463Z,13.54
2019-05-15T10:36:23.739Z,13.48
2019-05-15T10:38:54.915Z,13.52
2019-05-15T10:41:28.152Z,13.46
2019-05-15T10:44:00.298Z,13.48
2019-05-15T10:46:31.729Z,13.50
2019-05-15T10:49:02.763Z,13.52
2019-05-15T10:51:33.873Z,13.56
2019-05-15T10:54:05.194Z,13.64
2019-05-15T10:56:38.374Z,13.70
2019-05-15T10:59:09.313Z,13.77
2019-05-15T11:01:40.547Z,13.82
2019-05-15T11:04:11.843Z,13.93
2019-05-15T11:06:43.111Z,13.91
2019-05-15T11:09:14.084Z,13.92
2019-05-15T11:11:45.020Z,13.92
2019-05-15T11:14:18.273Z,13.88
2019-05-15T11:16:49.351Z,14.02
2019-05-15T11:19:20.389Z,13.93
2019-05-15T11:21:51.554Z,13.96
2019-05-15T11:24:22.853Z,13.96
2019-05-15T11:26:56.189Z,13.85
2019-05-15T11:29:27.039Z,13.73
2019-05-15T11:31:58.265Z,13.68
2019-05-15T11:34:29.427Z,13.66
2019-05-15T11:37:00.785Z,13.77
2019-05-15T11:39:32.119Z,13.71
2019-05-15T11:42:03.235Z,13.81
2019-05-15T11:44:34.263Z,13.80
2019-05-15T11:47:05.579Z,13.77
2019-05-15T11:49:38.396Z,13.71
2019-05-15T11:52:09.614Z,13.64
2019-05-15T11:54:40.722Z,13.56
2019-05-15T11:57:12.073Z,13.55
2019-05-15T11:59:45.597Z,13.47
2019-05-15T12:02:18.621Z,13.45
2019-05-15T12:04:50.349Z,13.38
2019-05-15T12:07:21.509Z,13.25
2019-05-15T12:09:53.740Z,13.28
2019-05-15T12:12:28.752Z,13.29
2019-05-15T12:14:57.744Z,13.38
2019-05-15T12:17:28.944Z,13.62
2019-05-15T12:20:05.791Z,13.80
2019-05-15T12:22:33.005Z,14.08
2019-05-15T12:25:05.178Z,14.31
2019-05-15T12:27:36.079Z,14.30
2019-05-15T12:30:15.318Z,14.32
2019-05-15T12:32:49.227Z,14.28
2019-05-15T12:35:20.375Z,14.23
2019-05-15T12:37:51.795Z,14.18
2019-05-15T13:00:45.423Z,14.04
2019-05-15T13:03:18.234Z,13.96
2019-05-15T13:05:49.563Z,13.91
2019-05-15T13:08:20.686Z,13.76
2019-05-15T13:10:51.742Z,13.75
2019-05-15T13:13:23.326Z,13.69
2019-05-15T13:15:54.520Z,13.64
2019-05-15T13:18:25.595Z,13.63
2019-05-15T13:20:59.516Z,13.62
2019-05-15T13:23:30.184Z,13.63
2019-05-15T13:26:01.324Z,13.65
2019-05-15T13:28:34.504Z,13.65
2019-05-15T13:31:05.569Z,13.65
2019-05-15T13:33:38.443Z,13.67
2019-05-15T13:36:09.567Z,13.67
2019-05-15T13:38:40.830Z,13.65
2019-05-15T13:41:12.046Z,13.55
2019-05-15T13:43:43.263Z,13.50
2019-05-15T13:46:14.684Z,13.49
2019-05-15T13:48:45.950Z,13.47
2019-05-15T13:51:18.261Z,13.43
2019-05-15T13:53:49.350Z,13.40
2019-05-15T13:56:21.964Z,13.38
2019-05-15T13:58:53.238Z,13.38
2019-05-15T14:01:24.628Z,13.41
2019-05-15T14:03:55.639Z,13.31
2019-05-15T14:06:28.686Z,13.26
2019-05-15T14:08:59.356Z,13.22
2019-05-15T14:11:31.565Z,13.22
2019-05-15T14:14:02.774Z,13.22
2019-05-15T14:16:33.911Z,13.25
2019-05-15T14:19:05.119Z,13.24
2019-05-15T14:21:37.961Z,13.23
2019-05-15T14:24:09.421Z,13.26
2019-05-15T14:26:40.458Z,13.29
2019-05-15T14:29:11.917Z,13.26
2019-05-15T14:31:42.982Z,13.23
2019-05-15T14:34:14.264Z,13.16
2019-05-15T14:36:45.303Z,13.13
2019-05-15T14:39:16.391Z,13.05
2019-05-15T14:41:49.182Z,13.05
2019-05-15T14:44:21.735Z,13.06
2019-05-15T14:46:53.018Z,13.08
2019-05-15T14:49:24.214Z,13.06
2019-05-15T14:52:07.678Z,13.04
2019-05-15T14:54:29.016Z,13.05
2019-05-15T14:57:00.239Z,13.01
2019-05-15T14:59:31.134Z,13.02
2019-05-15T15:02:02.714Z,13.02
2019-05-15T15:04:33.613Z,13.03
2019-05-15T15:07:04.867Z,13.04
2019-05-15T15:09:36.022Z,13.05
2019-05-15T15:12:08.200Z,13.04
2019-05-15T15:14:39.594Z,13.03
2019-05-15T15:17:10.921Z,13.04
2019-05-15T15:19:41.980Z,13.04
2019-05-15T15:22:13.235Z,13.03
2019-05-15T15:24:44.389Z,12.95
2019-05-15T15:27:15.947Z,13.00
2019-05-15T15:29:48.299Z,12.99
2019-05-15T15:32:19.527Z,12.93
2019-05-15T15:34:50.635Z,12.88
2019-05-15T15:37:21.815Z,12.89
2019-05-15T15:39:53.252Z,12.87
2019-05-15T15:42:24.468Z,12.86
2019-05-15T15:44:57.958Z,12.86
2019-05-15T15:47:28.332Z,12.88
2019-05-15T15:49:59.326Z,12.86
2019-05-15T15:52:30.237Z,12.89
2019-05-15T15:55:01.294Z,12.88
2019-05-15T15:57:33.210Z,12.88
2019-05-15T16:00:10.192Z,12.86
2019-05-15T16:02:41.429Z,12.86
2019-05-15T16:05:12.948Z,12.88
2019-05-15T16:07:43.904Z,12.80
2019-05-15T16:10:15.051Z,12.75
2019-05-15T16:12:46.111Z,12.69
2019-05-15T16:15:17.992Z,12.67
2019-05-15T16:17:49.205Z,12.64
2019-05-15T16:20:21.162Z,12.60
2019-05-15T16:22:52.294Z,12.59
2019-05-15T16:25:23.378Z,12.57
2019-05-15T16:27:54.764Z,12.58
2019-05-15T16:30:28.052Z,12.56
2019-05-15T16:32:58.676Z,12.55
2019-05-15T16:35:29.951Z,12.54
2019-05-15T16:38:01.161Z,12.55
2019-05-15T16:40:32.663Z,12.55
2019-05-15T16:43:04.322Z,12.54
2019-05-15T16:45:38.423Z,12.50
2019-05-15T16:48:09.540Z,12.49
2019-05-15T16:50:40.786Z,12.45
2019-05-15T16:53:12.176Z,12.40
2019-05-15T16:55:43.437Z,12.37
2019-05-15T16:58:14.879Z,12.34
2019-05-15T17:00:46.319Z,12.33
2019-05-15T17:03:18.420Z,12.30
2019-05-15T17:05:49.917Z,12.27
2019-05-15T17:08:21.135Z,12.28
2019-05-15T17:10:52.198Z,12.27
2019-05-15T17:13:23.480Z,12.24
2019-05-15T17:15:54.559Z,12.23
2019-05-15T17:18:25.761Z,12.21
2019-05-15T17:20:58.853Z,12.23
2019-05-15T17:23:29.612Z,12.21
2019-05-15T17:26:01.297Z,12.21
2019-05-15T17:28:32.415Z,12.23
2019-05-15T17:31:03.539Z,12.25
2019-05-15T17:33:34.611Z,12.23
2019-05-15T17:36:05.657Z,12.19
2019-05-15T17:38:38.125Z,12.16
2019-05-15T17:41:10.772Z,12.14
2019-05-15T17:43:42.971Z,12.12
2019-05-15T17:46:14.097Z,12.09
2019-05-15T17:48:53.950Z,12.07
2019-05-15T17:51:18.317Z,12.08
2019-05-15T17:53:49.497Z,12.04
2019-05-15T17:56:20.627Z,12.04
2019-05-15T17:58:51.695Z,11.99
2019-05-15T18:01:22.739Z,12.02
2019-05-15T18:03:53.784Z,12.04
2019-05-15T18:06:25.044Z,12.04
2019-05-15T18:08:56.185Z,12.03
2019-05-15T18:11:27.839Z,12.02
2019-05-15T18:13:59.335Z,12.03
2019-05-15T18:16:30.426Z,11.99
2019-05-15T18:19:03.471Z,11.94
2019-05-15T18:21:35.121Z,11.93
2019-05-15T18:24:09.291Z,11.92
2019-05-15T18:26:39.970Z,11.91
2019-05-15T18:29:11.218Z,11.87
2019-05-15T18:31:42.592Z,11.86
2019-05-15T18:34:13.834Z,11.85
2019-05-15T18:36:44.838Z,11.82
2019-05-15T18:39:15.970Z,11.84
2019-05-15T18:41:48.531Z,11.85
2019-05-15T18:44:20.873Z,11.85
2019-05-15T18:46:51.911Z,11.88
2019-05-15T18:49:22.865Z,11.86
2019-05-15T18:51:53.962Z,11.83
2019-05-15T18:54:25.050Z,11.87
2019-05-15T18:56:58.384Z,11.88
2019-05-15T18:59:29.020Z,11.88
2019-05-15T19:02:00.283Z,11.84
2019-05-15T19:04:31.528Z,11.84
2019-05-15T19:07:02.657Z,11.78
2019-05-15T19:09:33.754Z,11.78
2019-05-15T19:12:05.414Z,11.78
2019-05-15T19:14:39.406Z,11.79
2019-05-15T19:17:09.530Z,11.79
2019-05-15T19:19:40.660Z,11.78
2019-05-15T19:22:12.060Z,11.76
2019-05-15T19:24:43.329Z,11.78
2019-05-15T19:27:14.817Z,11.78
2019-05-15T19:29:48.006Z,11.76
2019-05-15T19:32:18.894Z,11.74
2019-05-15T19:34:49.791Z,11.73
2019-05-15T19:37:21.024Z,11.71
2019-05-15T19:39:52.072Z,11.68
2019-05-15T19:42:23.229Z,11.63
2019-05-15T19:44:54.499Z,11.65
2019-05-15T19:47:25.586Z,11.64
2019-05-15T19:49:57.817Z,11.62
2019-05-15T19:52:28.923Z,11.64
2019-05-15T19:55:00.364Z,11.65
2019-05-15T19:57:31.350Z,11.69
2019-05-15T20:00:03.020Z,11.73
2019-05-15T20:02:34.662Z,11.78
2019-05-15T20:05:09.235Z,11.79
2019-05-15T20:07:40.608Z,11.82
2019-05-15T20:10:12.558Z,11.82
2019-05-15T20:12:43.598Z,11.82
2019-05-15T20:15:15.747Z,11.81
2019-05-15T20:17:47.855Z,11.81
2019-05-15T20:20:20.342Z,11.84
2019-05-15T20:22:51.685Z,11.86
2019-05-15T20:25:23.270Z,11.85
2019-05-15T20:27:54.330Z,11.86
2019-05-15T20:30:28.428Z,11.89
2019-05-15T20:32:58.990Z,11.90
2019-05-15T20:35:30.077Z,11.86
2019-05-15T20:38:01.264Z,11.82
2019-05-15T20:40:32.404Z,11.75
2019-05-15T20:43:03.658Z,11.75
2019-05-15T20:45:35.878Z,11.79
2019-05-15T20:48:08.962Z,11.81
2019-05-15T20:50:40.361Z,11.81
2019-05-15T20:53:11.585Z,11.80
2019-05-15T20:55:43.030Z,11.75
2019-05-15T20:58:14.201Z,11.79
2019-05-15T21:00:46.030Z,11.78
2019-05-15T21:03:17.910Z,11.80
2019-05-15T21:05:49.319Z,11.83
2019-05-15T21:08:20.418Z,11.86
2019-05-15T21:10:51.795Z,11.86
2019-05-15T21:13:22.864Z,11.84
2019-05-15T21:15:54.025Z,11.80
2019-05-15T21:18:25.268Z,11.78
2019-05-15T21:20:56.359Z,11.76
2019-05-15T21:23:28.583Z,11.72
2019-05-15T21:25:59.783Z,11.68
2019-05-15T21:28:30.869Z,11.69
2019-05-15T21:31:02.045Z,11.69
2019-05-15T21:33:33.752Z,11.66
2019-05-15T21:36:04.880Z,11.68
2019-05-15T21:38:35.951Z,11.68
2019-05-15T21:41:08.002Z,11.66
2019-05-15T21:43:39.204Z,11.64
2019-05-15T21:46:10.511Z,11.69
2019-05-15T21:48:41.662Z,11.70
2019-05-15T21:51:13.503Z,11.73
2019-05-15T21:53:44.553Z,11.72
2019-05-15T21:56:16.007Z,11.70
2019-05-15T21:58:48.308Z,11.64
2019-05-15T22:01:19.860Z,11.62
2019-05-15T22:03:52.001Z,11.57
2019-05-15T22:06:23.068Z,11.59
2019-05-15T22:08:54.251Z,11.56
2019-05-15T22:11:28.903Z,11.56
2019-05-15T22:13:58.980Z,11.59
2019-05-15T22:16:31.681Z,11.56
2019-05-15T22:19:02.871Z,11.56
2019-05-15T22:21:34.855Z,11.57
2019-05-15T22:24:08.246Z,11.57
2019-05-15T22:26:39.174Z,11.51
2019-05-15T22:29:10.701Z,11.49
2019-05-15T22:31:42.861Z,11.50
2019-05-15T22:34:14.296Z,11.52
2019-05-15T22:36:45.357Z,11.51
2019-05-15T22:39:18.802Z,11.50
2019-05-15T22:41:49.434Z,11.44
2019-05-15T22:44:20.655Z,11.41
2019-05-15T22:46:52.232Z,11.34
2019-05-15T22:49:23.338Z,11.33
2019-05-15T22:51:54.631Z,11.31
2019-05-15T22:54:27.738Z,11.29
2019-05-15T22:56:58.793Z,11.28
2019-05-15T22:59:29.939Z,11.26
2019-05-15T23:02:01.416Z,11.21
2019-05-15T23:04:32.467Z,11.20
2019-05-15T23:07:03.719Z,11.14
2019-05-15T23:09:35.125Z,11.15
2019-05-15T23:12:11.044Z,11.14
2019-05-15T23:14:39.604Z,11.16
2019-05-15T23:17:10.700Z,11.17
2019-05-15T23:19:41.926Z,11.12
2019-05-15T23:22:13.003Z,11.20
2019-05-15T23:24:44.260Z,11.19
2019-05-15T23:27:15.340Z,11.14
2019-05-15T23:29:48.968Z,11.16
2019-05-15T23:32:19.382Z,11.20
2019-05-15T23:34:50.338Z,11.23
2019-05-15T23:37:21.440Z,11.23
2019-05-15T23:39:52.421Z,11.23
2019-05-15T23:42:23.664Z,11.27
2019-05-15T23:44:55.205Z,11.28
2019-05-15T23:47:28.492Z,11.31
2019-05-15T23:49:58.912Z,11.28
2019-05-15T23:52:29.814Z,11.29
2019-05-15T23:55:00.758Z,11.31
2019-05-15T23:57:31.998Z,11.31
